Terminal Aerodrome Forecast
Issued by NWS

Home | Current Version | Previous Version | Text Only | Print | Product List | Glossary On
Versions: 1 2 3 4 5 6 7 8 9 10 11 12 13 14 15 16
000
FTUS46 KPDT 291726
TAFBDN
TAF
KBDN 291726Z 2918/3018 21014G22KT P6SM SCT060
     FM292000 27020G30KT P6SM BKN070
     FM300300 28009KT P6SM SCT080
     FM300700 18007KT P6SM SCT080
     FM301300 21014G22KT P6SM -RA OVC050=

USA.gov is the U.S. government's official web portal to all federal, state and local government web resources and services.